sensor_id;sensor_type;location;lat;lon;timestamp;pressure;altitude;pressure_sealevel;temperature
33267;BMP180;19638;49.080;11.896;2024-01-07T00:00:08;95447.00;;;4.90
33267;BMP180;19638;49.080;11.896;2024-01-07T00:04:12;95453.00;;;4.80
33267;BMP180;19638;49.080;11.896;2024-01-07T00:08:17;95452.00;;;4.80
33267;BMP180;19638;49.080;11.896;2024-01-07T00:12:20;95450.00;;;4.80
33267;BMP180;19638;49.080;11.896;2024-01-07T00:16:23;95460.00;;;4.80
33267;BMP180;19638;49.080;11.896;2024-01-07T00:20:26;95463.00;;;4.70
33267;BMP180;19638;49.080;11.896;2024-01-07T00:24:30;95459.00;;;4.60
33267;BMP180;19638;49.080;11.896;2024-01-07T00:28:34;95461.00;;;4.60
33267;BMP180;19638;49.080;11.896;2024-01-07T00:32:37;95463.00;;;4.50
33267;BMP180;19638;49.080;11.896;2024-01-07T00:36:40;95463.00;;;4.50
33267;BMP180;19638;49.080;11.896;2024-01-07T00:40:44;95460.00;;;4.40
33267;BMP180;19638;49.080;11.896;2024-01-07T00:44:48;95458.00;;;4.40
33267;BMP180;19638;49.080;11.896;2024-01-07T00:48:51;95461.00;;;4.40
33267;BMP180;19638;49.080;11.896;2024-01-07T00:52:54;95470.00;;;4.40
33267;BMP180;19638;49.080;11.896;2024-01-07T00:56:59;95460.00;;;4.30
33267;BMP180;19638;49.080;11.896;2024-01-07T01:01:02;95472.00;;;4.30
33267;BMP180;19638;49.080;11.896;2024-01-07T01:05:06;95473.00;;;4.30
33267;BMP180;19638;49.080;11.896;2024-01-07T01:09:10;95477.00;;;4.30
33267;BMP180;19638;49.080;11.896;2024-01-07T01:13:14;95471.00;;;4.30
33267;BMP180;19638;49.080;11.896;2024-01-07T01:17:17;95482.00;;;4.30
33267;BMP180;19638;49.080;11.896;2024-01-07T01:21:20;95479.00;;;4.30
33267;BMP180;19638;49.080;11.896;2024-01-07T01:25:24;95484.00;;;4.30
33267;BMP180;19638;49.080;11.896;2024-01-07T01:29:30;95483.00;;;4.30
33267;BMP180;19638;49.080;11.896;2024-01-07T01:33:33;95491.00;;;4.30
33267;BMP180;19638;49.080;11.896;2024-01-07T01:37:36;95488.00;;;4.30
33267;BMP180;19638;49.080;11.896;2024-01-07T01:41:39;95486.00;;;4.30
33267;BMP180;19638;49.080;11.896;2024-01-07T01:45:44;95484.00;;;4.30
33267;BMP180;19638;49.080;11.896;2024-01-07T01:49:47;95484.00;;;4.30
33267;BMP180;19638;49.080;11.896;2024-01-07T01:53:51;95488.00;;;4.30
33267;BMP180;19638;49.080;11.896;2024-01-07T01:57:55;95479.00;;;4.20
33267;BMP180;19638;49.080;11.896;2024-01-07T02:02:03;95486.00;;;4.20
33267;BMP180;19638;49.080;11.896;2024-01-07T02:06:06;95481.00;;;4.20
33267;BMP180;19638;49.080;11.896;2024-01-07T02:10:09;95483.00;;;4.20
33267;BMP180;19638;49.080;11.896;2024-01-07T02:14:21;95486.00;;;4.10
33267;BMP180;19638;49.080;11.896;2024-01-07T02:18:25;95493.00;;;4.10
33267;BMP180;19638;49.080;11.896;2024-01-07T02:22:28;95491.00;;;4.10
33267;BMP180;19638;49.080;11.896;2024-01-07T02:26:33;95493.00;;;4.10
33267;BMP180;19638;49.080;11.896;2024-01-07T02:30:36;95487.00;;;4.10
33267;BMP180;19638;49.080;11.896;2024-01-07T02:34:39;95487.00;;;4.00
33267;BMP180;19638;49.080;11.896;2024-01-07T02:38:42;95481.00;;;4.00
33267;BMP180;19638;49.080;11.896;2024-01-07T02:42:47;95495.00;;;4.00
33267;BMP180;19638;49.080;11.896;2024-01-07T02:46:50;95486.00;;;4.00
33267;BMP180;19638;49.080;11.896;2024-01-07T02:50:53;95490.00;;;3.90
33267;BMP180;19638;49.080;11.896;2024-01-07T02:54:56;95491.00;;;3.90
33267;BMP180;19638;49.080;11.896;2024-01-07T02:59:01;95484.00;;;3.90
33267;BMP180;19638;49.080;11.896;2024-01-07T03:03:04;95486.00;;;3.90
33267;BMP180;19638;49.080;11.896;2024-01-07T03:07:07;95490.00;;;3.90
33267;BMP180;19638;49.080;11.896;2024-01-07T03:11:10;95495.00;;;3.90
33267;BMP180;19638;49.080;11.896;2024-01-07T03:15:15;95489.00;;;3.90
33267;BMP180;19638;49.080;11.896;2024-01-07T03:19:18;95486.00;;;3.80
33267;BMP180;19638;49.080;11.896;2024-01-07T03:23:22;95497.00;;;3.80
33267;BMP180;19638;49.080;11.896;2024-01-07T03:27:25;95496.00;;;3.80
33267;BMP180;19638;49.080;11.896;2024-01-07T03:31:31;95490.00;;;3.80
33267;BMP180;19638;49.080;11.896;2024-01-07T03:35:34;95495.00;;;3.70
33267;BMP180;19638;49.080;11.896;2024-01-07T03:39:37;95500.00;;;3.70
33267;BMP180;19638;49.080;11.896;2024-01-07T03:43:40;95498.00;;;3.70
33267;BMP180;19638;49.080;11.896;2024-01-07T03:47:45;95503.00;;;3.70
33267;BMP180;19638;49.080;11.896;2024-01-07T03:51:48;95508.00;;;3.70
33267;BMP180;19638;49.080;11.896;2024-01-07T03:55:51;95507.00;;;3.60
33267;BMP180;19638;49.080;11.896;2024-01-07T03:59:54;95512.00;;;3.60
33267;BMP180;19638;49.080;11.896;2024-01-07T04:03:58;95516.00;;;3.60
33267;BMP180;19638;49.080;11.896;2024-01-07T04:08:02;95525.00;;;3.60
33267;BMP180;19638;49.080;11.896;2024-01-07T04:12:06;95527.00;;;3.50
33267;BMP180;19638;49.080;11.896;2024-01-07T04:16:15;95528.00;;;3.50
33267;BMP180;19638;49.080;11.896;2024-01-07T04:20:21;95528.00;;;3.50
33267;BMP180;19638;49.080;11.896;2024-01-07T04:24:25;95535.00;;;3.50
33267;BMP180;19638;49.080;11.896;2024-01-07T04:28:28;95538.00;;;3.50
33267;BMP180;19638;49.080;11.896;2024-01-07T04:32:31;95538.00;;;3.40
33267;BMP180;19638;49.080;11.896;2024-01-07T04:36:36;95558.00;;;3.40
33267;BMP180;19638;49.080;11.896;2024-01-07T04:40:39;95545.00;;;3.50
33267;BMP180;19638;49.080;11.896;2024-01-07T04:44:42;95555.00;;;3.50
33267;BMP180;19638;49.080;11.896;2024-01-07T04:48:45;95554.00;;;3.50
33267;BMP180;19638;49.080;11.896;2024-01-07T04:52:50;95556.00;;;3.50
33267;BMP180;19638;49.080;11.896;2024-01-07T04:56:53;95549.00;;;3.50
33267;BMP180;19638;49.080;11.896;2024-01-07T05:00:56;95565.00;;;3.50
33267;BMP180;19638;49.080;11.896;2024-01-07T05:05:00;95579.00;;;3.50
33267;BMP180;19638;49.080;11.896;2024-01-07T05:09:04;95577.00;;;3.50
33267;BMP180;19638;49.080;11.896;2024-01-07T05:13:07;95580.00;;;3.40
33267;BMP180;19638;49.080;11.896;2024-01-07T05:17:10;95574.00;;;3.40
33267;BMP180;19638;49.080;11.896;2024-01-07T05:21:14;95571.00;;;3.30
33267;BMP180;19638;49.080;11.896;2024-01-07T05:25:18;95572.00;;;3.30
33267;BMP180;19638;49.080;11.896;2024-01-07T05:29:22;95582.00;;;3.30
33267;BMP180;19638;49.080;11.896;2024-01-07T05:33:25;95581.00;;;3.30
33267;BMP180;19638;49.080;11.896;2024-01-07T05:37:28;95585.00;;;3.30
33267;BMP180;19638;49.080;11.896;2024-01-07T05:41:33;95587.00;;;3.20
33267;BMP180;19638;49.080;11.896;2024-01-07T05:45:36;95592.00;;;3.20
33267;BMP180;19638;49.080;11.896;2024-01-07T05:49:39;95589.00;;;3.20
33267;BMP180;19638;49.080;11.896;2024-01-07T05:53:43;95594.00;;;3.20
33267;BMP180;19638;49.080;11.896;2024-01-07T05:57:47;95605.00;;;3.20
33267;BMP180;19638;49.080;11.896;2024-01-07T06:01:51;95603.00;;;3.20
33267;BMP180;19638;49.080;11.896;2024-01-07T06:05:54;95610.00;;;3.20
33267;BMP180;19638;49.080;11.896;2024-01-07T06:09:58;95607.00;;;3.20
33267;BMP180;19638;49.080;11.896;2024-01-07T06:14:03;95613.00;;;3.20
33267;BMP180;19638;49.080;11.896;2024-01-07T06:18:06;95612.00;;;3.10
33267;BMP180;19638;49.080;11.896;2024-01-07T06:22:10;95607.00;;;3.10
33267;BMP180;19638;49.080;11.896;2024-01-07T06:26:15;95609.00;;;3.10
33267;BMP180;19638;49.080;11.896;2024-01-07T06:30:19;95611.00;;;3.00
33267;BMP180;19638;49.080;11.896;2024-01-07T06:34:22;95618.00;;;3.00
33267;BMP180;19638;49.080;11.896;2024-01-07T06:38:25;95626.00;;;3.00
33267;BMP180;19638;49.080;11.896;2024-01-07T06:42:29;95623.00;;;3.00
33267;BMP180;19638;49.080;11.896;2024-01-07T06:46:33;95623.00;;;3.00
33267;BMP180;19638;49.080;11.896;2024-01-07T06:50:37;95629.00;;;3.10
33267;BMP180;19638;49.080;11.896;2024-01-07T06:54:40;95638.00;;;3.10
33267;BMP180;19638;49.080;11.896;2024-01-07T06:58:44;95636.00;;;3.10
33267;BMP180;19638;49.080;11.896;2024-01-07T07:02:48;95638.00;;;3.10
33267;BMP180;19638;49.080;11.896;2024-01-07T07:06:51;95655.00;;;3.10
33267;BMP180;19638;49.080;11.896;2024-01-07T07:10:55;95650.00;;;3.00
33267;BMP180;19638;49.080;11.896;2024-01-07T07:14:58;95649.00;;;3.00
33267;BMP180;19638;49.080;11.896;2024-01-07T07:19:02;95657.00;;;3.00
33267;BMP180;19638;49.080;11.896;2024-01-07T07:23:06;95655.00;;;2.90
33267;BMP180;19638;49.080;11.896;2024-01-07T07:27:09;95651.00;;;2.90
33267;BMP180;19638;49.080;11.896;2024-01-07T07:31:12;95660.00;;;2.80
33267;BMP180;19638;49.080;11.896;2024-01-07T07:35:17;95672.00;;;2.80
33267;BMP180;19638;49.080;11.896;2024-01-07T07:39:20;95684.00;;;2.80
33267;BMP180;19638;49.080;11.896;2024-01-07T07:43:23;95687.00;;;2.80
33267;BMP180;19638;49.080;11.896;2024-01-07T07:47:27;95696.00;;;2.80
33267;BMP180;19638;49.080;11.896;2024-01-07T07:51:34;95703.00;;;2.80
33267;BMP180;19638;49.080;11.896;2024-01-07T07:55:41;95704.00;;;2.70
33267;BMP180;19638;49.080;11.896;2024-01-07T07:59:44;95698.00;;;2.70
33267;BMP180;19638;49.080;11.896;2024-01-07T08:03:47;95718.00;;;2.70
33267;BMP180;19638;49.080;11.896;2024-01-07T08:07:52;95718.00;;;2.70
33267;BMP180;19638;49.080;11.896;2024-01-07T08:11:55;95723.00;;;2.70
33267;BMP180;19638;49.080;11.896;2024-01-07T08:15:58;95719.00;;;2.70
33267;BMP180;19638;49.080;11.896;2024-01-07T08:20:01;95725.00;;;2.60
33267;BMP180;19638;49.080;11.896;2024-01-07T08:24:07;95716.00;;;2.60
33267;BMP180;19638;49.080;11.896;2024-01-07T08:28:14;95724.00;;;2.60
33267;BMP180;19638;49.080;11.896;2024-01-07T08:32:18;95724.00;;;2.60
33267;BMP180;19638;49.080;11.896;2024-01-07T08:36:25;95732.00;;;2.70
33267;BMP180;19638;49.080;11.896;2024-01-07T08:40:32;95730.00;;;2.60
33267;BMP180;19638;49.080;11.896;2024-01-07T08:44:36;95745.00;;;2.70
33267;BMP180;19638;49.080;11.896;2024-01-07T08:48:39;95739.00;;;2.70
33267;BMP180;19638;49.080;11.896;2024-01-07T08:52:42;95754.00;;;2.70
33267;BMP180;19638;49.080;11.896;2024-01-07T08:56:50;95761.00;;;2.70
33267;BMP180;19638;49.080;11.896;2024-01-07T09:00:53;95754.00;;;2.70
33267;BMP180;19638;49.080;11.896;2024-01-07T09:04:56;95770.00;;;2.70
33267;BMP180;19638;49.080;11.896;2024-01-07T09:08:59;95777.00;;;2.70
33267;BMP180;19638;49.080;11.896;2024-01-07T09:13:04;95785.00;;;2.70
33267;BMP180;19638;49.080;11.896;2024-01-07T09:17:08;95784.00;;;2.60
33267;BMP180;19638;49.080;11.896;2024-01-07T09:21:11;95793.00;;;2.70
33267;BMP180;19638;49.080;11.896;2024-01-07T09:25:15;95787.00;;;2.70
33267;BMP180;19638;49.080;11.896;2024-01-07T09:29:21;95795.00;;;2.60
33267;BMP180;19638;49.080;11.896;2024-01-07T09:33:28;95804.00;;;2.60
33267;BMP180;19638;49.080;11.896;2024-01-07T09:37:32;95800.00;;;2.60
33267;BMP180;19638;49.080;11.896;2024-01-07T09:41:37;95801.00;;;2.60
33267;BMP180;19638;49.080;11.896;2024-01-07T09:45:46;95805.00;;;2.50
33267;BMP180;19638;49.080;11.896;2024-01-07T09:49:49;95804.00;;;2.50
33267;BMP180;19638;49.080;11.896;2024-01-07T09:53:58;95802.00;;;2.40
33267;BMP180;19638;49.080;11.896;2024-01-07T09:58:10;95799.00;;;2.40
33267;BMP180;19638;49.080;11.896;2024-01-07T10:02:15;95815.00;;;2.30
33267;BMP180;19638;49.080;11.896;2024-01-07T10:06:20;95816.00;;;2.20
33267;BMP180;19638;49.080;11.896;2024-01-07T10:10:23;95819.00;;;2.20
33267;BMP180;19638;49.080;11.896;2024-01-07T10:14:26;95810.00;;;2.20
33267;BMP180;19638;49.080;11.896;2024-01-07T10:18:35;95813.00;;;2.20
33267;BMP180;19638;49.080;11.896;2024-01-07T10:22:38;95817.00;;;2.10
33267;BMP180;19638;49.080;11.896;2024-01-07T10:26:41;95815.00;;;2.10
33267;BMP180;19638;49.080;11.896;2024-01-07T10:30:48;95817.00;;;2.10
33267;BMP180;19638;49.080;11.896;2024-01-07T10:35:00;95823.00;;;2.00
33267;BMP180;19638;49.080;11.896;2024-01-07T10:39:05;95832.00;;;2.00
33267;BMP180;19638;49.080;11.896;2024-01-07T10:43:08;95838.00;;;2.00
33267;BMP180;19638;49.080;11.896;2024-01-07T10:47:13;95836.00;;;2.00
33267;BMP180;19638;49.080;11.896;2024-01-07T10:51:20;95834.00;;;2.00
33267;BMP180;19638;49.080;11.896;2024-01-07T10:55:25;95847.00;;;1.90
33267;BMP180;19638;49.080;11.896;2024-01-07T10:59:35;95840.00;;;1.90
33267;BMP180;19638;49.080;11.896;2024-01-07T11:03:54;95845.00;;;1.90
33267;BMP180;19638;49.080;11.896;2024-01-07T11:08:06;95837.00;;;1.90
33267;BMP180;19638;49.080;11.896;2024-01-07T11:12:10;95843.00;;;1.80
33267;BMP180;19638;49.080;11.896;2024-01-07T11:16:41;95848.00;;;1.80
33267;BMP180;19638;49.080;11.896;2024-01-07T11:20:45;95855.00;;;1.80
33267;BMP180;19638;49.080;11.896;2024-01-07T11:24:50;95863.00;;;1.80
33267;BMP180;19638;49.080;11.896;2024-01-07T11:28:55;95854.00;;;1.80
33267;BMP180;19638;49.080;11.896;2024-01-07T11:33:00;95864.00;;;1.80
33267;BMP180;19638;49.080;11.896;2024-01-07T11:37:06;95857.00;;;1.80
33267;BMP180;19638;49.080;11.896;2024-01-07T11:41:13;95856.00;;;1.80
33267;BMP180;19638;49.080;11.896;2024-01-07T11:45:17;95857.00;;;1.70
33267;BMP180;19638;49.080;11.896;2024-01-07T11:49:20;95864.00;;;1.80
33267;BMP180;19638;49.080;11.896;2024-01-07T11:53:24;95865.00;;;1.70
33267;BMP180;19638;49.080;11.896;2024-01-07T11:57:30;95865.00;;;1.70
33267;BMP180;19638;49.080;11.896;2024-01-07T12:01:33;95871.00;;;1.70
33267;BMP180;19638;49.080;11.896;2024-01-07T12:05:37;95869.00;;;1.70
33267;BMP180;19638;49.080;11.896;2024-01-07T12:09:45;95883.00;;;1.70
33267;BMP180;19638;49.080;11.896;2024-01-07T12:13:50;95879.00;;;1.70
33267;BMP180;19638;49.080;11.896;2024-01-07T12:17:57;95877.00;;;1.70
33267;BMP180;19638;49.080;11.896;2024-01-07T12:22:08;95879.00;;;1.70
33267;BMP180;19638;49.080;11.896;2024-01-07T12:26:12;95885.00;;;1.70
33267;BMP180;19638;49.080;11.896;2024-01-07T12:30:18;95895.00;;;1.70
33267;BMP180;19638;49.080;11.896;2024-01-07T12:34:21;95891.00;;;1.70
33267;BMP180;19638;49.080;11.896;2024-01-07T12:38:26;95882.00;;;1.70
33267;BMP180;19638;49.080;11.896;2024-01-07T12:42:29;95884.00;;;1.80
33267;BMP180;19638;49.080;11.896;2024-01-07T12:46:33;95896.00;;;1.70
33267;BMP180;19638;49.080;11.896;2024-01-07T12:50:37;95890.00;;;1.70
33267;BMP180;19638;49.080;11.896;2024-01-07T12:54:40;95895.00;;;1.70
33267;BMP180;19638;49.080;11.896;2024-01-07T12:58:43;95901.00;;;1.70
33267;BMP180;19638;49.080;11.896;2024-01-07T13:02:48;95898.00;;;1.80
33267;BMP180;19638;49.080;11.896;2024-01-07T13:06:55;95905.00;;;1.80
33267;BMP180;19638;49.080;11.896;2024-01-07T13:10:58;95910.00;;;1.80
33267;BMP180;19638;49.080;11.896;2024-01-07T13:15:02;95920.00;;;1.80
33267;BMP180;19638;49.080;11.896;2024-01-07T13:19:07;95918.00;;;1.70
33267;BMP180;19638;49.080;11.896;2024-01-07T13:23:13;95929.00;;;1.70
33267;BMP180;19638;49.080;11.896;2024-01-07T13:27:16;95931.00;;;1.70
33267;BMP180;19638;49.080;11.896;2024-01-07T13:31:20;95948.00;;;1.60
33267;BMP180;19638;49.080;11.896;2024-01-07T13:35:25;95947.00;;;1.50
33267;BMP180;19638;49.080;11.896;2024-01-07T13:39:28;95943.00;;;1.50
33267;BMP180;19638;49.080;11.896;2024-01-07T13:43:32;95957.00;;;1.50
33267;BMP180;19638;49.080;11.896;2024-01-07T13:47:36;95952.00;;;1.40
33267;BMP180;19638;49.080;11.896;2024-01-07T13:51:40;95966.00;;;1.40
33267;BMP180;19638;49.080;11.896;2024-01-07T13:55:44;95967.00;;;1.30
33267;BMP180;19638;49.080;11.896;2024-01-07T13:59:48;95958.00;;;1.30
33267;BMP180;19638;49.080;11.896;2024-01-07T14:03:52;95980.00;;;1.30
33267;BMP180;19638;49.080;11.896;2024-01-07T14:07:56;95975.00;;;1.30
33267;BMP180;19638;49.080;11.896;2024-01-07T14:12:00;95987.00;;;1.30
33267;BMP180;19638;49.080;11.896;2024-01-07T14:16:05;95986.00;;;1.20
33267;BMP180;19638;49.080;11.896;2024-01-07T14:20:09;95992.00;;;1.20
33267;BMP180;19638;49.080;11.896;2024-01-07T14:24:14;95991.00;;;1.20
33267;BMP180;19638;49.080;11.896;2024-01-07T14:28:17;95995.00;;;1.20
33267;BMP180;19638;49.080;11.896;2024-01-07T14:32:21;96004.00;;;1.20
33267;BMP180;19638;49.080;11.896;2024-01-07T14:36:25;96013.00;;;1.20
33267;BMP180;19638;49.080;11.896;2024-01-07T14:40:30;96013.00;;;1.20
33267;BMP180;19638;49.080;11.896;2024-01-07T14:44:33;96023.00;;;1.10
33267;BMP180;19638;49.080;11.896;2024-01-07T14:48:52;96027.00;;;1.10
33267;BMP180;19638;49.080;11.896;2024-01-07T14:52:55;96032.00;;;1.10
33267;BMP180;19638;49.080;11.896;2024-01-07T14:57:01;96031.00;;;1.10
33267;BMP180;19638;49.080;11.896;2024-01-07T15:01:04;96047.00;;;1.10
33267;BMP180;19638;49.080;11.896;2024-01-07T15:05:08;96045.00;;;1.00
33267;BMP180;19638;49.080;11.896;2024-01-07T15:09:12;96062.00;;;1.00
33267;BMP180;19638;49.080;11.896;2024-01-07T15:13:18;96059.00;;;0.90
33267;BMP180;19638;49.080;11.896;2024-01-07T15:17:23;96068.00;;;0.90
33267;BMP180;19638;49.080;11.896;2024-01-07T15:21:26;96057.00;;;0.90
33267;BMP180;19638;49.080;11.896;2024-01-07T15:25:29;96077.00;;;0.90
33267;BMP180;19638;49.080;11.896;2024-01-07T15:29:44;96065.00;;;0.80
33267;BMP180;19638;49.080;11.896;2024-01-07T15:33:48;96075.00;;;0.80
33267;BMP180;19638;49.080;11.896;2024-01-07T15:37:51;96075.00;;;0.70
33267;BMP180;19638;49.080;11.896;2024-01-07T15:41:56;96081.00;;;0.70
33267;BMP180;19638;49.080;11.896;2024-01-07T15:46:01;96080.00;;;0.70
33267;BMP180;19638;49.080;11.896;2024-01-07T15:50:06;96081.00;;;0.60
33267;BMP180;19638;49.080;11.896;2024-01-07T15:54:09;96088.00;;;0.60
33267;BMP180;19638;49.080;11.896;2024-01-07T15:58:14;96091.00;;;0.60
33267;BMP180;19638;49.080;11.896;2024-01-07T16:02:19;96092.00;;;0.60
33267;BMP180;19638;49.080;11.896;2024-01-07T16:06:23;96100.00;;;0.60
33267;BMP180;19638;49.080;11.896;2024-01-07T16:10:26;96106.00;;;0.60
33267;BMP180;19638;49.080;11.896;2024-01-07T16:14:29;96116.00;;;0.50
33267;BMP180;19638;49.080;11.896;2024-01-07T16:18:36;96117.00;;;0.50
33267;BMP180;19638;49.080;11.896;2024-01-07T16:22:40;96127.00;;;0.40
33267;BMP180;19638;49.080;11.896;2024-01-07T16:26:43;96133.00;;;0.40
33267;BMP180;19638;49.080;11.896;2024-01-07T16:30:47;96137.00;;;0.30
33267;BMP180;19638;49.080;11.896;2024-01-07T16:34:54;96139.00;;;0.30
33267;BMP180;19638;49.080;11.896;2024-01-07T16:38:58;96135.00;;;0.30
33267;BMP180;19638;49.080;11.896;2024-01-07T16:43:03;96145.00;;;0.20
33267;BMP180;19638;49.080;11.896;2024-01-07T16:47:06;96157.00;;;0.20
33267;BMP180;19638;49.080;11.896;2024-01-07T16:51:12;96154.00;;;0.20
33267;BMP180;19638;49.080;11.896;2024-01-07T16:55:16;96160.00;;;0.20
33267;BMP180;19638;49.080;11.896;2024-01-07T16:59:19;96171.00;;;0.20
33267;BMP180;19638;49.080;11.896;2024-01-07T17:03:23;96164.00;;;0.10
33267;BMP180;19638;49.080;11.896;2024-01-07T17:07:27;96175.00;;;0.10
33267;BMP180;19638;49.080;11.896;2024-01-07T17:11:32;96174.00;;;0.10
33267;BMP180;19638;49.080;11.896;2024-01-07T17:15:35;96178.00;;;0.10
33267;BMP180;19638;49.080;11.896;2024-01-07T17:19:40;96186.00;;;0.00
33267;BMP180;19638;49.080;11.896;2024-01-07T17:23:45;96189.00;;;0.00
33267;BMP180;19638;49.080;11.896;2024-01-07T17:27:53;96198.00;;;0.00
33267;BMP180;19638;49.080;11.896;2024-01-07T17:31:56;96208.00;;;0.00
33267;BMP180;19638;49.080;11.896;2024-01-07T17:35:59;96214.00;;;-0.10
33267;BMP180;19638;49.080;11.896;2024-01-07T17:40:05;96228.00;;;-0.10
33267;BMP180;19638;49.080;11.896;2024-01-07T17:44:08;96222.00;;;-0.10
33267;BMP180;19638;49.080;11.896;2024-01-07T17:48:12;96227.00;;;-0.20
33267;BMP180;19638;49.080;11.896;2024-01-07T17:52:15;96229.00;;;-0.20
33267;BMP180;19638;49.080;11.896;2024-01-07T17:56:20;96232.00;;;-0.20
33267;BMP180;19638;49.080;11.896;2024-01-07T18:00:24;96237.00;;;-0.20
33267;BMP180;19638;49.080;11.896;2024-01-07T18:04:27;96245.00;;;-0.20
33267;BMP180;19638;49.080;11.896;2024-01-07T18:08:30;96246.00;;;-0.30
33267;BMP180;19638;49.080;11.896;2024-01-07T18:12:44;96248.00;;;-0.30
33267;BMP180;19638;49.080;11.896;2024-01-07T18:16:50;96250.00;;;-0.40
33267;BMP180;19638;49.080;11.896;2024-01-07T18:20:54;96246.00;;;-0.40
33267;BMP180;19638;49.080;11.896;2024-01-07T18:24:58;96249.00;;;-0.40
33267;BMP180;19638;49.080;11.896;2024-01-07T18:29:02;96249.00;;;-0.40
33267;BMP180;19638;49.080;11.896;2024-01-07T18:33:05;96264.00;;;-0.40
33267;BMP180;19638;49.080;11.896;2024-01-07T18:37:09;96261.00;;;-0.50
33267;BMP180;19638;49.080;11.896;2024-01-07T18:41:17;96259.00;;;-0.50
33267;BMP180;19638;49.080;11.896;2024-01-07T18:45:25;96272.00;;;-0.60
33267;BMP180;19638;49.080;11.896;2024-01-07T18:49:28;96275.00;;;-0.60
33267;BMP180;19638;49.080;11.896;2024-01-07T18:53:32;96290.00;;;-0.70
33267;BMP180;19638;49.080;11.896;2024-01-07T18:57:35;96286.00;;;-0.80
33267;BMP180;19638;49.080;11.896;2024-01-07T19:01:39;96286.00;;;-0.80
33267;BMP180;19638;49.080;11.896;2024-01-07T19:05:46;96292.00;;;-0.90
33267;BMP180;19638;49.080;11.896;2024-01-07T19:09:50;96296.00;;;-0.90
33267;BMP180;19638;49.080;11.896;2024-01-07T19:13:53;96310.00;;;-0.80
33267;BMP180;19638;49.080;11.896;2024-01-07T19:17:57;96303.00;;;-0.80
33267;BMP180;19638;49.080;11.896;2024-01-07T19:22:01;96313.00;;;-0.80
33267;BMP180;19638;49.080;11.896;2024-01-07T19:26:05;96305.00;;;-0.80
33267;BMP180;19638;49.080;11.896;2024-01-07T19:30:09;96325.00;;;-0.80
33267;BMP180;19638;49.080;11.896;2024-01-07T19:34:14;96325.00;;;-0.90
33267;BMP180;19638;49.080;11.896;2024-01-07T19:38:17;96329.00;;;-0.90
33267;BMP180;19638;49.080;11.896;2024-01-07T19:42:20;96333.00;;;-1.00
33267;BMP180;19638;49.080;11.896;2024-01-07T19:46:23;96338.00;;;-1.10
33267;BMP180;19638;49.080;11.896;2024-01-07T19:50:28;96341.00;;;-1.10
33267;BMP180;19638;49.080;11.896;2024-01-07T19:54:32;96342.00;;;-1.20
33267;BMP180;19638;49.080;11.896;2024-01-07T19:58:35;96347.00;;;-1.20
33267;BMP180;19638;49.080;11.896;2024-01-07T20:02:38;96342.00;;;-1.40
33267;BMP180;19638;49.080;11.896;2024-01-07T20:06:42;96354.00;;;-1.50
33267;BMP180;19638;49.080;11.896;2024-01-07T20:10:46;96351.00;;;-1.70
33267;BMP180;19638;49.080;11.896;2024-01-07T20:14:49;96359.00;;;-1.70
33267;BMP180;19638;49.080;11.896;2024-01-07T20:18:53;96359.00;;;-1.80
33267;BMP180;19638;49.080;11.896;2024-01-07T20:22:57;96363.00;;;-1.80
33267;BMP180;19638;49.080;11.896;2024-01-07T20:27:00;96368.00;;;-1.90
33267;BMP180;19638;49.080;11.896;2024-01-07T20:31:04;96380.00;;;-2.00
33267;BMP180;19638;49.080;11.896;2024-01-07T20:35:11;96377.00;;;-2.10
33267;BMP180;19638;49.080;11.896;2024-01-07T20:39:16;96375.00;;;-2.10
33267;BMP180;19638;49.080;11.896;2024-01-07T20:43:23;96384.00;;;-2.20
33267;BMP180;19638;49.080;11.896;2024-01-07T20:47:26;96388.00;;;-2.30
33267;BMP180;19638;49.080;11.896;2024-01-07T20:51:29;96390.00;;;-2.30
33267;BMP180;19638;49.080;11.896;2024-01-07T20:55:34;96386.00;;;-2.40
33267;BMP180;19638;49.080;11.896;2024-01-07T20:59:37;96394.00;;;-2.30
33267;BMP180;19638;49.080;11.896;2024-01-07T21:03:40;96387.00;;;-2.30
33267;BMP180;19638;49.080;11.896;2024-01-07T21:07:45;96382.00;;;-2.30
33267;BMP180;19638;49.080;11.896;2024-01-07T21:11:51;96391.00;;;-2.40
33267;BMP180;19638;49.080;11.896;2024-01-07T21:15:54;96387.00;;;-2.50
33267;BMP180;19638;49.080;11.896;2024-01-07T21:19:58;96397.00;;;-2.60
33267;BMP180;19638;49.080;11.896;2024-01-07T21:24:01;96388.00;;;-2.70
33267;BMP180;19638;49.080;11.896;2024-01-07T21:28:06;96393.00;;;-2.70
33267;BMP180;19638;49.080;11.896;2024-01-07T21:32:09;96392.00;;;-2.80
33267;BMP180;19638;49.080;11.896;2024-01-07T21:36:12;96394.00;;;-2.80
33267;BMP180;19638;49.080;11.896;2024-01-07T21:40:18;96391.00;;;-2.80
33267;BMP180;19638;49.080;11.896;2024-01-07T21:44:22;96394.00;;;-2.90
33267;BMP180;19638;49.080;11.896;2024-01-07T21:48:26;96401.00;;;-2.90
33267;BMP180;19638;49.080;11.896;2024-01-07T21:52:32;96405.00;;;-2.80
33267;BMP180;19638;49.080;11.896;2024-01-07T21:56:35;96405.00;;;-2.70
33267;BMP180;19638;49.080;11.896;2024-01-07T22:00:40;96417.00;;;-2.60
33267;BMP180;19638;49.080;11.896;2024-01-07T22:04:43;96416.00;;;-2.50
33267;BMP180;19638;49.080;11.896;2024-01-07T22:08:46;96415.00;;;-2.50
33267;BMP180;19638;49.080;11.896;2024-01-07T22:12:49;96414.00;;;-2.40
33267;BMP180;19638;49.080;11.896;2024-01-07T22:16:54;96421.00;;;-2.30
33267;BMP180;19638;49.080;11.896;2024-01-07T22:20:57;96413.00;;;-2.30
33267;BMP180;19638;49.080;11.896;2024-01-07T22:25:00;96422.00;;;-2.40
33267;BMP180;19638;49.080;11.896;2024-01-07T22:29:03;96417.00;;;-2.30
33267;BMP180;19638;49.080;11.896;2024-01-07T22:33:08;96419.00;;;-2.40
33267;BMP180;19638;49.080;11.896;2024-01-07T22:37:11;96423.00;;;-2.40
33267;BMP180;19638;49.080;11.896;2024-01-07T22:41:14;96433.00;;;-2.40
33267;BMP180;19638;49.080;11.896;2024-01-07T22:45:19;96422.00;;;-2.50
33267;BMP180;19638;49.080;11.896;2024-01-07T22:49:24;96428.00;;;-2.50
33267;BMP180;19638;49.080;11.896;2024-01-07T22:53:27;96434.00;;;-2.50
33267;BMP180;19638;49.080;11.896;2024-01-07T22:57:31;96437.00;;;-2.40
33267;BMP180;19638;49.080;11.896;2024-01-07T23:01:34;96438.00;;;-2.40
33267;BMP180;19638;49.080;11.896;2024-01-07T23:05:38;96447.00;;;-2.40
33267;BMP180;19638;49.080;11.896;2024-01-07T23:09:42;96454.00;;;-2.40
33267;BMP180;19638;49.080;11.896;2024-01-07T23:13:45;96445.00;;;-2.40
33267;BMP180;19638;49.080;11.896;2024-01-07T23:17:50;96449.00;;;-2.40
33267;BMP180;19638;49.080;11.896;2024-01-07T23:21:55;96448.00;;;-2.40